createdAt,value
2019-05-12T00:01:39.521Z,5.30
2019-05-12T00:04:29.950Z,5.50
2019-05-12T00:07:20.207Z,5.67
2019-05-12T00:10:10.507Z,6.03
2019-05-12T00:13:00.740Z,5.00
2019-05-12T00:15:51.084Z,5.30
2019-05-12T00:18:41.362Z,6.30
2019-05-12T00:21:31.655Z,6.17
2019-05-12T00:24:21.862Z,6.70
2019-05-12T00:27:17.706Z,5.80
2019-05-12T00:30:10.101Z,6.33
2019-05-12T00:32:58.706Z,5.47
2019-05-12T00:35:48.912Z,5.30
2019-05-12T00:38:39.219Z,5.20
2019-05-12T00:41:29.407Z,5.70
2019-05-12T00:44:20.100Z,4.93
2019-05-12T00:47:10.403Z,5.00
2019-05-12T00:50:00.821Z,5.60
2019-05-12T00:52:51.150Z,4.43
2019-05-12T00:55:41.510Z,4.80
2019-05-12T00:58:31.619Z,5.33
2019-05-12T01:01:21.886Z,5.20
2019-05-12T01:04:12.121Z,5.73
2019-05-12T01:07:02.423Z,5.40
2019-05-12T01:09:52.712Z,5.60
2019-05-12T01:12:43.118Z,5.43
2019-05-12T01:15:33.142Z,5.60
2019-05-12T01:18:23.687Z,5.47
2019-05-12T01:21:13.999Z,5.87
2019-05-12T01:24:04.257Z,5.80
2019-05-12T01:26:54.563Z,5.40
2019-05-12T01:29:44.903Z,6.20
2019-05-12T01:32:38.347Z,6.30
2019-05-12T01:35:29.640Z,5.93
2019-05-12T01:38:19.833Z,6.37
2019-05-12T01:41:10.167Z,5.97
2019-05-12T01:44:00.359Z,5.93
2019-05-12T01:46:50.510Z,6.10
2019-05-12T01:49:40.746Z,5.90
2019-05-12T01:52:31.236Z,6.37
2019-05-12T01:55:21.480Z,6.40
2019-05-12T01:58:11.523Z,6.50
2019-05-12T02:01:03.058Z,6.57
2019-05-12T02:03:53.198Z,6.80
2019-05-12T02:06:43.218Z,6.93
2019-05-12T02:09:34.953Z,7.13
2019-05-12T02:12:24.740Z,7.37
2019-05-12T02:15:18.384Z,7.53
2019-05-12T02:18:09.265Z,7.80
2019-05-12T02:20:59.760Z,7.80
2019-05-12T02:23:50.013Z,7.77
2019-05-12T02:26:40.286Z,7.57
2019-05-12T02:29:30.649Z,8.90
2019-05-12T02:32:23.751Z,9.07
2019-05-12T02:35:16.087Z,9.10
2019-05-12T02:38:05.435Z,9.30
2019-05-12T02:40:55.884Z,9.70
2019-05-12T02:43:46.172Z,10.10
2019-05-12T02:46:36.129Z,11.10
2019-05-12T02:49:26.154Z,9.50
2019-05-12T02:52:16.177Z,10.57
2019-05-12T02:55:06.899Z,10.00
2019-05-12T02:57:57.163Z,9.40
2019-05-12T03:00:47.470Z,9.43
2019-05-12T03:03:37.878Z,9.13
2019-05-12T03:06:28.373Z,9.30
2019-05-12T03:09:18.395Z,8.67
2019-05-12T03:12:08.895Z,9.00
2019-05-12T03:14:58.995Z,9.43
2019-05-12T03:17:49.096Z,9.40
2019-05-12T03:20:39.366Z,9.30
2019-05-12T03:23:29.563Z,9.20
2019-05-12T03:26:19.541Z,9.57
2019-05-12T03:29:09.796Z,8.00
2019-05-12T03:31:59.947Z,9.00
2019-05-12T03:34:50.136Z,9.37
2019-05-12T03:37:40.166Z,7.97
2019-05-12T03:40:30.489Z,8.77
2019-05-12T03:43:20.501Z,7.70
2019-05-12T03:46:10.689Z,7.67
2019-05-12T03:49:04.870Z,7.73
2019-05-12T03:51:54.374Z,7.77
2019-05-12T03:54:45.226Z,7.83
2019-05-12T03:57:35.232Z,8.00
2019-05-12T04:00:25.495Z,7.60
2019-05-12T04:03:15.852Z,7.20
2019-05-12T04:06:07.093Z,7.00
2019-05-12T04:08:59.926Z,6.47
2019-05-12T04:11:49.712Z,6.67
2019-05-12T04:14:54.968Z,6.13
2019-05-12T04:17:50.160Z,5.73
2019-05-12T04:20:40.577Z,5.50
2019-05-12T04:23:30.972Z,5.03
2019-05-12T04:26:21.101Z,4.43
2019-05-12T04:29:11.345Z,4.43
2019-05-12T04:32:01.565Z,4.20
2019-05-12T04:34:54.822Z,4.13
2019-05-12T04:37:44.845Z,4.43
2019-05-12T04:40:36.504Z,3.98
2019-05-12T04:43:27.442Z,4.30
2019-05-12T04:46:18.293Z,4.42
2019-05-12T04:49:09.017Z,3.92
2019-05-12T04:51:59.862Z,4.55
2019-05-12T04:54:50.681Z,4.03
2019-05-12T04:57:44.789Z,4.15
2019-05-12T05:00:35.048Z,3.35
2019-05-12T05:03:26.409Z,3.65
2019-05-12T05:06:17.344Z,3.83
2019-05-12T05:09:09.202Z,3.70
2019-05-12T05:11:59.971Z,3.85
2019-05-12T05:14:51.117Z,3.50
2019-05-12T05:17:44.105Z,3.15
2019-05-12T05:20:34.645Z,3.27
2019-05-12T05:23:25.495Z,3.20
2019-05-12T05:26:24.643Z,3.08
2019-05-12T05:29:08.720Z,3.30
2019-05-12T05:32:00.722Z,3.10
2019-05-12T05:34:55.863Z,3.05
2019-05-12T05:37:44.395Z,3.00
2019-05-12T05:40:36.064Z,3.25
2019-05-12T05:43:27.095Z,2.80
2019-05-12T05:46:18.041Z,2.90
2019-05-12T05:49:08.973Z,3.25
2019-05-12T05:51:59.872Z,2.95
2019-05-12T05:54:53.111Z,3.02
2019-05-12T05:57:44.353Z,2.90
2019-05-12T06:00:38.971Z,2.90
2019-05-12T06:03:28.091Z,2.55
2019-05-12T06:06:19.217Z,2.85
2019-05-12T06:09:10.006Z,2.80
2019-05-12T06:12:05.259Z,3.08
2019-05-12T06:14:55.316Z,2.80
2019-05-12T06:17:45.412Z,3.00
2019-05-12T06:20:38.138Z,2.55
2019-05-12T06:23:33.906Z,2.98
2019-05-12T06:26:31.013Z,2.90
2019-05-12T06:29:20.092Z,3.30
2019-05-12T06:32:10.721Z,2.85
2019-05-12T06:35:01.511Z,2.80
2019-05-12T06:38:00.198Z,3.02
2019-05-12T06:40:45.298Z,3.12
2019-05-12T06:43:39.532Z,2.85
2019-05-12T06:46:29.775Z,2.50
2019-05-12T06:49:20.581Z,3.12
2019-05-12T06:52:11.560Z,2.80
2019-05-12T06:55:04.059Z,2.60
2019-05-12T06:57:54.811Z,3.22
2019-05-12T07:00:45.655Z,2.80
2019-05-12T07:03:37.392Z,2.70
2019-05-12T07:06:28.347Z,2.50
2019-05-12T07:09:26.741Z,2.70
2019-05-12T07:12:13.584Z,2.70
2019-05-12T07:15:03.923Z,2.77
2019-05-12T07:18:04.248Z,3.17
2019-05-12T07:20:55.227Z,3.17
2019-05-12T07:23:46.165Z,2.92
2019-05-12T07:26:37.199Z,3.22
2019-05-12T07:29:28.118Z,2.70
2019-05-12T07:32:21.885Z,3.25
2019-05-12T07:35:11.094Z,3.20
2019-05-12T07:38:04.291Z,3.27
2019-05-12T07:40:53.927Z,3.35
2019-05-12T07:43:44.658Z,3.17
2019-05-12T07:46:39.630Z,3.80
2019-05-12T07:49:34.228Z,3.42
2019-05-12T07:52:20.036Z,3.42
2019-05-12T07:55:10.966Z,3.85
2019-05-12T07:58:09.981Z,3.25
2019-05-12T08:01:02.361Z,3.60
2019-05-12T08:03:51.043Z,3.60
2019-05-12T08:06:41.633Z,3.70
2019-05-12T08:09:33.159Z,3.50
2019-05-12T08:12:23.793Z,3.50
2019-05-12T08:15:14.285Z,3.40
2019-05-12T08:18:07.795Z,3.52
2019-05-12T08:20:59.772Z,3.92
2019-05-12T08:23:48.985Z,3.33
2019-05-12T08:26:39.020Z,3.00
2019-05-12T08:29:29.364Z,3.07
2019-05-12T08:32:20.381Z,3.50
2019-05-12T08:35:10.805Z,3.20
2019-05-12T08:38:03.636Z,3.20
2019-05-12T08:40:54.447Z,3.37
2019-05-12T08:43:51.475Z,3.40
2019-05-12T08:46:43.203Z,2.83
2019-05-12T08:49:33.531Z,2.60
2019-05-12T08:52:23.603Z,2.72
2019-05-12T08:55:16.814Z,3.40
2019-05-12T08:58:07.212Z,3.30
2019-05-12T09:00:58.045Z,3.58
2019-05-12T09:03:49.050Z,3.37
2019-05-12T09:06:39.847Z,3.60
2019-05-12T09:09:30.748Z,3.80
2019-05-12T09:12:23.329Z,3.85
2019-05-12T09:15:13.795Z,3.47
2019-05-12T09:18:05.003Z,3.70
2019-05-12T09:20:55.963Z,3.70
2019-05-12T09:23:46.286Z,3.50
2019-05-12T09:26:36.671Z,3.90
2019-05-12T09:29:26.644Z,3.77
2019-05-12T09:32:17.427Z,3.63
2019-05-12T09:35:07.704Z,3.57
2019-05-12T09:37:58.181Z,3.20
2019-05-12T09:40:55.046Z,3.63
2019-05-12T09:43:45.419Z,4.10
2019-05-12T09:46:34.266Z,3.60
2019-05-12T09:49:31.381Z,3.80
2019-05-12T09:52:22.725Z,3.50
2019-05-12T09:55:08.145Z,3.73
2019-05-12T09:57:58.458Z,3.90
2019-05-12T10:00:48.775Z,3.87
2019-05-12T10:03:40.145Z,3.60
2019-05-12T10:06:30.722Z,3.57
2019-05-12T10:09:24.464Z,4.07
2019-05-12T10:12:15.141Z,3.67
2019-05-12T10:15:06.401Z,3.60
2019-05-12T10:18:00.287Z,4.20
2019-05-12T10:20:48.360Z,3.60
2019-05-12T10:23:38.390Z,3.57
2019-05-12T10:26:28.568Z,3.70
2019-05-12T10:29:20.811Z,3.40
2019-05-12T10:32:13.225Z,3.50
2019-05-12T10:35:02.886Z,3.40
2019-05-12T10:37:54.148Z,4.00
2019-05-12T10:40:47.801Z,3.60
2019-05-12T10:43:36.411Z,3.90
2019-05-12T10:46:28.552Z,3.90
2019-05-12T10:49:18.759Z,4.07
2019-05-12T10:52:08.858Z,4.00
2019-05-12T10:54:59.899Z,4.27
2019-05-12T10:57:53.011Z,4.10
2019-05-12T11:00:44.209Z,4.20
2019-05-12T11:03:33.975Z,4.20
2019-05-12T11:06:24.505Z,4.23
2019-05-12T11:09:14.829Z,4.27
2019-05-12T11:12:05.408Z,4.70
2019-05-12T11:14:55.940Z,4.40
2019-05-12T11:18:03.633Z,5.00
2019-05-12T11:20:54.387Z,5.07
2019-05-12T11:23:45.715Z,4.90
2019-05-12T11:26:36.011Z,5.70
2019-05-12T11:29:26.383Z,5.03
2019-05-12T11:32:17.748Z,4.57
2019-05-12T11:35:08.025Z,5.47
2019-05-12T11:37:58.218Z,5.00
2019-05-12T11:40:48.476Z,4.50
2019-05-12T11:43:38.897Z,4.03
2019-05-12T11:46:29.293Z,2.20
2019-05-12T11:49:21.759Z,2.37
2019-05-12T11:52:16.730Z,2.23
2019-05-12T11:55:02.938Z,2.70
2019-05-12T11:57:54.529Z,4.60
2019-05-12T12:00:47.845Z,4.10
2019-05-12T12:03:37.846Z,4.10
2019-05-12T12:06:27.941Z,4.73
2019-05-12T12:09:18.981Z,4.70
2019-05-12T12:12:10.348Z,4.80
2019-05-12T12:15:00.280Z,4.40
2019-05-12T12:17:50.534Z,4.70
2019-05-12T12:20:40.765Z,4.70
2019-05-12T12:23:30.865Z,4.60
2019-05-12T12:26:30.375Z,4.53
2019-05-12T12:29:17.723Z,4.03
2019-05-12T12:32:09.815Z,4.10
2019-05-12T12:35:00.961Z,4.40
2019-05-12T12:37:53.927Z,4.30
2019-05-12T12:40:44.172Z,4.07
2019-05-12T12:43:34.323Z,3.33
2019-05-12T12:46:27.733Z,3.83
2019-05-12T12:49:17.755Z,3.97
2019-05-12T12:52:08.128Z,4.17
2019-05-12T12:54:59.439Z,3.93
2019-05-12T12:57:50.823Z,3.40
2019-05-12T13:00:47.114Z,4.23
2019-05-12T13:03:34.094Z,4.20
2019-05-12T13:06:24.556Z,4.20
2019-05-12T13:09:24.196Z,4.30
2019-05-12T13:12:14.341Z,4.23
2019-05-12T13:14:57.900Z,3.90
2019-05-12T13:17:48.115Z,4.03
2019-05-12T13:20:38.449Z,3.90
2019-05-12T13:23:38.022Z,3.80
2019-05-12T13:26:20.717Z,3.70
2019-05-12T13:29:13.261Z,3.60
2019-05-12T13:32:03.351Z,3.97
2019-05-12T13:34:53.845Z,4.00
2019-05-12T13:37:44.150Z,3.43
2019-05-12T13:40:39.217Z,3.50
2019-05-12T13:43:26.595Z,3.70
2019-05-12T13:46:17.056Z,3.43
2019-05-12T13:49:07.476Z,3.90
2019-05-12T13:51:57.762Z,3.47
2019-05-12T13:54:48.093Z,4.27
2019-05-12T13:57:43.933Z,3.93
2019-05-12T14:00:30.347Z,3.73
2019-05-12T14:03:20.611Z,3.50
2019-05-12T14:06:11.195Z,3.80
2019-05-12T14:09:01.237Z,3.30
2019-05-12T14:11:53.837Z,3.57
2019-05-12T14:14:44.285Z,3.03
2019-05-12T14:17:37.314Z,3.00
2019-05-12T14:20:26.293Z,2.70
2019-05-12T14:23:16.816Z,2.70
2019-05-12T14:26:09.199Z,2.63
2019-05-12T14:28:59.225Z,2.53
2019-05-12T14:31:55.047Z,2.80
2019-05-12T14:34:43.370Z,2.80
2019-05-12T14:37:33.720Z,2.40
2019-05-12T14:40:29.863Z,2.63
2019-05-12T14:43:21.161Z,3.13
2019-05-12T14:46:10.344Z,2.70
2019-05-12T14:48:59.456Z,2.57
2019-05-12T14:51:49.542Z,2.47
2019-05-12T14:54:39.730Z,2.47
2019-05-12T14:57:37.311Z,2.33
2019-05-12T15:00:23.956Z,2.53
2019-05-12T15:03:16.137Z,2.90
2019-05-12T15:06:07.672Z,2.53
2019-05-12T15:08:56.869Z,2.80
2019-05-12T15:11:47.123Z,2.50
2019-05-12T15:14:38.112Z,2.73
2019-05-12T15:17:28.713Z,2.97
2019-05-12T15:20:18.825Z,2.80
2019-05-12T15:23:09.352Z,2.50
2019-05-12T15:25:59.781Z,2.60
2019-05-12T15:28:50.060Z,2.80
2019-05-12T15:31:52.744Z,2.80
2019-05-12T15:34:33.734Z,2.67
2019-05-12T15:37:23.871Z,2.77
2019-05-12T15:40:14.718Z,2.70
2019-05-12T15:43:06.487Z,3.20
2019-05-12T15:45:59.397Z,2.97
2019-05-12T15:48:49.217Z,3.50
2019-05-12T15:51:50.967Z,3.50
2019-05-12T15:54:31.197Z,3.03
2019-05-12T15:57:21.220Z,3.10
2019-05-12T16:00:16.370Z,3.30
2019-05-12T16:03:03.014Z,3.20
2019-05-12T16:05:53.560Z,3.10
2019-05-12T16:08:45.114Z,3.00
2019-05-12T16:11:35.779Z,3.40
2019-05-12T16:14:30.372Z,3.40
2019-05-12T16:17:24.633Z,3.20
2019-05-12T16:20:10.463Z,3.10
2019-05-12T16:23:00.876Z,3.20
2019-05-12T16:25:51.096Z,3.50
2019-05-12T16:28:43.959Z,3.70
2019-05-12T16:31:33.920Z,3.40
2019-05-12T16:34:24.419Z,3.13
2019-05-12T16:37:14.463Z,3.23
2019-05-12T16:40:05.035Z,3.33
2019-05-12T16:42:59.548Z,3.70
2019-05-12T16:45:46.779Z,3.27
2019-05-12T16:48:37.025Z,4.20
2019-05-12T16:51:27.311Z,4.10
2019-05-12T16:54:17.467Z,4.30
2019-05-12T16:57:12.863Z,3.90
2019-05-12T17:00:03.552Z,3.80
2019-05-12T17:02:57.901Z,4.10
2019-05-12T17:05:50.119Z,3.63
2019-05-12T17:08:37.467Z,4.30
2019-05-12T17:11:30.975Z,3.90
2019-05-12T17:14:19.905Z,3.90
2019-05-12T17:17:10.977Z,3.90
2019-05-12T17:20:01.328Z,3.77
2019-05-12T17:22:57.764Z,4.20
2019-05-12T17:25:43.194Z,3.80
2019-05-12T17:28:34.355Z,4.03
2019-05-12T17:31:25.875Z,3.53
2019-05-12T17:34:16.174Z,3.90
2019-05-12T17:37:06.461Z,3.90
2019-05-12T17:39:56.731Z,4.03
2019-05-12T17:42:47.176Z,3.67
2019-05-12T17:45:37.364Z,3.70
2019-05-12T17:48:27.862Z,3.60
2019-05-12T17:51:20.474Z,3.77
2019-05-12T17:54:13.519Z,3.67
2019-05-12T17:57:04.015Z,3.80
2019-05-12T17:59:54.592Z,3.40
2019-05-12T18:02:49.435Z,3.77
2019-05-12T18:05:36.973Z,4.07
2019-05-12T18:08:32.490Z,3.67
2019-05-12T18:11:18.983Z,3.63
2019-05-12T18:14:09.189Z,3.70
2019-05-12T18:17:08.501Z,4.33
2019-05-12T18:19:59.023Z,4.87
2019-05-12T18:22:44.879Z,4.80
2019-05-12T18:25:36.754Z,4.83
2019-05-12T18:28:29.473Z,4.73
2019-05-12T18:31:18.861Z,5.47
2019-05-12T18:34:09.176Z,5.13
2019-05-12T18:37:00.084Z,5.60
2019-05-12T18:39:53.474Z,6.33
2019-05-12T18:42:43.367Z,6.17
2019-05-12T18:45:34.211Z,6.10
2019-05-12T18:48:25.388Z,5.93
2019-05-12T18:51:17.352Z,6.00
2019-05-12T18:54:10.238Z,5.80
2019-05-12T18:57:06.758Z,6.07
2019-05-12T18:59:55.129Z,6.80
2019-05-12T19:02:44.317Z,6.30
2019-05-12T19:05:34.403Z,7.00
2019-05-12T19:08:24.818Z,7.30
2019-05-12T19:11:22.534Z,7.03
2019-05-12T19:14:07.299Z,6.60
2019-05-12T19:16:57.721Z,6.70
2019-05-12T19:19:52.091Z,7.00
2019-05-12T19:22:48.138Z,6.50
2019-05-12T19:25:35.924Z,7.40
2019-05-12T19:28:23.948Z,6.70
2019-05-12T19:31:14.283Z,6.30
2019-05-12T19:34:17.987Z,6.33
2019-05-12T19:36:56.507Z,5.63
2019-05-12T19:39:46.516Z,5.70
2019-05-12T19:42:36.794Z,5.10
2019-05-12T19:45:26.823Z,5.13
2019-05-12T19:48:24.911Z,5.67
2019-05-12T19:51:20.853Z,6.10
2019-05-12T19:54:00.822Z,5.63
2019-05-12T19:56:53.749Z,5.10
2019-05-12T19:59:50.872Z,5.57
2019-05-12T20:02:35.773Z,5.40
2019-05-12T20:05:26.264Z,5.43
2019-05-12T20:08:16.680Z,4.90
2019-05-12T20:11:06.703Z,4.57
2019-05-12T20:13:57.028Z,4.93
2019-05-12T20:16:47.397Z,4.50
2019-05-12T20:19:37.731Z,4.43
2019-05-12T20:22:28.153Z,4.77
2019-05-12T20:25:18.369Z,4.60
2019-05-12T20:28:11.392Z,4.27
2019-05-12T20:31:01.599Z,3.93
2019-05-12T20:33:57.315Z,3.80
2019-05-12T20:36:44.494Z,4.40
2019-05-12T20:39:34.909Z,4.30
2019-05-12T20:42:25.257Z,4.60
2019-05-12T20:45:15.575Z,4.27
2019-05-12T20:48:05.918Z,4.20
2019-05-12T20:50:56.111Z,4.10
2019-05-12T20:53:46.210Z,3.70
2019-05-12T20:56:36.302Z,3.97
2019-05-12T20:59:28.313Z,4.27
2019-05-12T21:02:18.559Z,4.30
2019-05-12T21:05:14.786Z,3.87
2019-05-12T21:08:03.746Z,4.00
2019-05-12T21:10:54.122Z,3.73
2019-05-12T21:13:44.338Z,3.60
2019-05-12T21:16:38.775Z,3.90
2019-05-12T21:19:29.350Z,3.80
2019-05-12T21:22:17.852Z,3.67
2019-05-12T21:25:10.711Z,3.90
2019-05-12T21:28:07.636Z,3.70
2019-05-12T21:30:53.080Z,4.10
2019-05-12T21:33:43.877Z,3.90
2019-05-12T21:36:34.327Z,4.00
2019-05-12T21:39:24.851Z,3.87
2019-05-12T21:42:15.294Z,4.00
2019-05-12T21:45:05.686Z,4.00
2019-05-12T21:47:56.705Z,4.20
2019-05-12T21:50:46.990Z,4.50
2019-05-12T21:53:37.349Z,4.50
2019-05-12T21:56:27.695Z,4.40
2019-05-12T21:59:17.967Z,4.53
2019-05-12T22:02:08.371Z,4.73
2019-05-12T22:04:58.749Z,5.03
2019-05-12T22:07:49.110Z,4.70
2019-05-12T22:10:39.268Z,5.33
2019-05-12T22:13:29.619Z,4.97
2019-05-12T22:16:20.017Z,5.10
2019-05-12T22:19:10.381Z,5.30
2019-05-12T22:22:01.106Z,5.10
2019-05-12T22:24:53.628Z,4.67
2019-05-12T22:27:43.358Z,5.03
2019-05-12T22:30:34.834Z,5.37
2019-05-12T22:33:25.321Z,5.27
2019-05-12T22:36:25.392Z,5.10
2019-05-12T22:39:08.448Z,5.23
2019-05-12T22:41:58.428Z,5.60
2019-05-12T22:44:52.964Z,5.40
2019-05-12T22:47:40.689Z,5.50
2019-05-12T22:50:33.220Z,4.90
2019-05-12T22:53:25.742Z,5.10
2019-05-12T22:56:17.930Z,5.20
2019-05-12T22:59:07.793Z,4.97
2019-05-12T23:01:58.452Z,4.90
2019-05-12T23:04:48.675Z,5.10
2019-05-12T23:07:39.011Z,5.43
2019-05-12T23:10:29.248Z,5.00
2019-05-12T23:13:19.934Z,4.80
2019-05-12T23:16:14.033Z,5.07
2019-05-12T23:19:10.402Z,5.10
2019-05-12T23:21:58.509Z,4.83
2019-05-12T23:24:46.724Z,4.90
2019-05-12T23:27:37.032Z,5.03
2019-05-12T23:30:27.338Z,5.63
2019-05-12T23:33:17.589Z,5.20
2019-05-12T23:36:09.468Z,5.30
2019-05-12T23:39:00.752Z,5.50
2019-05-12T23:41:53.771Z,4.93
2019-05-12T23:44:44.304Z,4.67
2019-05-12T23:47:34.628Z,4.43
2019-05-12T23:50:24.851Z,5.27
2019-05-12T23:53:15.371Z,4.80
2019-05-12T23:56:05.670Z,5.40
2019-05-12T23:58:55.815Z,5.03
